sensor_id;sensor_type;location;lat;lon;timestamp;P1;durP1;ratioP1;P2;durP2;ratioP2
13419;SDS011;6781;58.440;15.470;2022-07-23T00:01:35;8.65;;;3.45;;
13419;SDS011;6781;58.440;15.470;2022-07-23T00:04:04;6.72;;;2.65;;
13419;SDS011;6781;58.440;15.470;2022-07-23T00:06:30;7.88;;;3.13;;
13419;SDS011;6781;58.440;15.470;2022-07-23T00:08:57;8.13;;;3.20;;
13419;SDS011;6781;58.440;15.470;2022-07-23T00:11:24;10.50;;;3.30;;
13419;SDS011;6781;58.440;15.470;2022-07-23T00:13:51;10.40;;;3.35;;
13419;SDS011;6781;58.440;15.470;2022-07-23T00:16:20;10.88;;;3.42;;
13419;SDS011;6781;58.440;15.470;2022-07-23T00:18:46;9.48;;;3.25;;
13419;SDS011;6781;58.440;15.470;2022-07-23T00:21:17;7.90;;;3.10;;
13419;SDS011;6781;58.440;15.470;2022-07-23T00:23:44;14.05;;;3.40;;
13419;SDS011;6781;58.440;15.470;2022-07-23T00:26:11;11.98;;;3.53;;
13419;SDS011;6781;58.440;15.470;2022-07-23T00:28:38;15.70;;;3.40;;
13419;SDS011;6781;58.440;15.470;2022-07-23T00:31:05;6.47;;;3.10;;
13419;SDS011;6781;58.440;15.470;2022-07-23T00:33:31;5.88;;;3.08;;
13419;SDS011;6781;58.440;15.470;2022-07-23T00:35:58;9.82;;;2.95;;
13419;SDS011;6781;58.440;15.470;2022-07-23T00:38:26;12.88;;;3.60;;
13419;SDS011;6781;58.440;15.470;2022-07-23T00:40:54;10.73;;;3.47;;
13419;SDS011;6781;58.440;15.470;2022-07-23T00:43:21;9.40;;;4.07;;
13419;SDS011;6781;58.440;15.470;2022-07-23T00:45:49;10.43;;;3.47;;
13419;SDS011;6781;58.440;15.470;2022-07-23T00:48:15;8.25;;;3.15;;
13419;SDS011;6781;58.440;15.470;2022-07-23T00:50:42;8.05;;;3.33;;
13419;SDS011;6781;58.440;15.470;2022-07-23T00:53:10;7.18;;;3.28;;
13419;SDS011;6781;58.440;15.470;2022-07-23T00:55:39;9.18;;;2.97;;
13419;SDS011;6781;58.440;15.470;2022-07-23T00:58:06;9.98;;;3.33;;
13419;SDS011;6781;58.440;15.470;2022-07-23T01:00:33;10.10;;;3.80;;
13419;SDS011;6781;58.440;15.470;2022-07-23T01:03:00;10.30;;;3.55;;
13419;SDS011;6781;58.440;15.470;2022-07-23T01:05:26;8.77;;;3.08;;
13419;SDS011;6781;58.440;15.470;2022-07-23T01:07:53;4.22;;;2.80;;
13419;SDS011;6781;58.440;15.470;2022-07-23T01:10:20;3.58;;;1.95;;
13419;SDS011;6781;58.440;15.470;2022-07-23T01:13:05;2.50;;;1.90;;
13419;SDS011;6781;58.440;15.470;2022-07-23T01:15:35;4.90;;;1.95;;
13419;SDS011;6781;58.440;15.470;2022-07-23T01:18:03;4.18;;;2.20;;
13419;SDS011;6781;58.440;15.470;2022-07-23T01:20:32;3.55;;;2.03;;
13419;SDS011;6781;58.440;15.470;2022-07-23T01:23:01;3.70;;;1.98;;
13419;SDS011;6781;58.440;15.470;2022-07-23T01:25:28;4.32;;;1.90;;
13419;SDS011;6781;58.440;15.470;2022-07-23T01:27:54;2.28;;;2.10;;
13419;SDS011;6781;58.440;15.470;2022-07-23T01:30:21;3.17;;;1.88;;
13419;SDS011;6781;58.440;15.470;2022-07-23T01:32:48;2.47;;;2.28;;
13419;SDS011;6781;58.440;15.470;2022-07-23T01:35:15;3.40;;;2.30;;
13419;SDS011;6781;58.440;15.470;2022-07-23T01:37:41;3.25;;;2.80;;
13419;SDS011;6781;58.440;15.470;2022-07-23T01:40:10;4.20;;;2.60;;
13419;SDS011;6781;58.440;15.470;2022-07-23T01:42:37;5.65;;;2.42;;
13419;SDS011;6781;58.440;15.470;2022-07-23T01:45:04;3.63;;;2.22;;
13419;SDS011;6781;58.440;15.470;2022-07-23T01:47:31;3.60;;;2.45;;
13419;SDS011;6781;58.440;15.470;2022-07-23T01:49:58;3.75;;;2.35;;
13419;SDS011;6781;58.440;15.470;2022-07-23T01:52:25;3.90;;;2.50;;
13419;SDS011;6781;58.440;15.470;2022-07-23T01:54:51;3.53;;;2.40;;
13419;SDS011;6781;58.440;15.470;2022-07-23T01:57:19;2.67;;;2.22;;
13419;SDS011;6781;58.440;15.470;2022-07-23T01:59:47;3.08;;;2.25;;
13419;SDS011;6781;58.440;15.470;2022-07-23T02:02:13;2.50;;;2.10;;
13419;SDS011;6781;58.440;15.470;2022-07-23T02:07:15;3.50;;;1.90;;
13419;SDS011;6781;58.440;15.470;2022-07-23T02:09:42;5.30;;;2.00;;
13419;SDS011;6781;58.440;15.470;2022-07-23T02:12:09;3.15;;;1.95;;
13419;SDS011;6781;58.440;15.470;2022-07-23T02:14:37;1.85;;;1.75;;
13419;SDS011;6781;58.440;15.470;2022-07-23T02:17:04;3.42;;;2.28;;
13419;SDS011;6781;58.440;15.470;2022-07-23T02:19:31;4.75;;;2.30;;
13419;SDS011;6781;58.440;15.470;2022-07-23T02:21:57;3.80;;;2.47;;
13419;SDS011;6781;58.440;15.470;2022-07-23T02:24:24;4.03;;;2.30;;
13419;SDS011;6781;58.440;15.470;2022-07-23T02:26:51;6.38;;;3.15;;
13419;SDS011;6781;58.440;15.470;2022-07-23T02:29:17;4.95;;;2.67;;
13419;SDS011;6781;58.440;15.470;2022-07-23T02:31:45;4.35;;;2.78;;
13419;SDS011;6781;58.440;15.470;2022-07-23T02:34:12;4.70;;;2.67;;
13419;SDS011;6781;58.440;15.470;2022-07-23T02:36:39;2.47;;;2.17;;
13419;SDS011;6781;58.440;15.470;2022-07-23T02:39:06;5.00;;;2.67;;
13419;SDS011;6781;58.440;15.470;2022-07-23T02:41:33;5.60;;;2.90;;
13419;SDS011;6781;58.440;15.470;2022-07-23T02:43:59;4.70;;;2.80;;
13419;SDS011;6781;58.440;15.470;2022-07-23T02:46:26;4.53;;;2.80;;
13419;SDS011;6781;58.440;15.470;2022-07-23T02:48:55;5.95;;;3.05;;
13419;SDS011;6781;58.440;15.470;2022-07-23T02:51:21;3.22;;;2.80;;
13419;SDS011;6781;58.440;15.470;2022-07-23T02:53:48;5.65;;;3.08;;
13419;SDS011;6781;58.440;15.470;2022-07-23T02:56:15;3.95;;;2.53;;
13419;SDS011;6781;58.440;15.470;2022-07-23T02:58:42;3.45;;;2.70;;
13419;SDS011;6781;58.440;15.470;2022-07-23T03:01:09;4.38;;;2.33;;
13419;SDS011;6781;58.440;15.470;2022-07-23T03:03:35;2.85;;;2.10;;
13419;SDS011;6781;58.440;15.470;2022-07-23T03:06:07;3.67;;;2.13;;
13419;SDS011;6781;58.440;15.470;2022-07-23T03:08:33;1.95;;;1.85;;
13419;SDS011;6781;58.440;15.470;2022-07-23T03:11:00;2.50;;;2.00;;
13419;SDS011;6781;58.440;15.470;2022-07-23T03:13:27;3.85;;;2.20;;
13419;SDS011;6781;58.440;15.470;2022-07-23T03:15:57;3.28;;;2.10;;
13419;SDS011;6781;58.440;15.470;2022-07-23T03:18:24;3.45;;;1.70;;
13419;SDS011;6781;58.440;15.470;2022-07-23T03:20:50;1.98;;;1.73;;
13419;SDS011;6781;58.440;15.470;2022-07-23T03:23:19;1.95;;;1.80;;
13419;SDS011;6781;58.440;15.470;2022-07-23T03:25:45;2.33;;;2.13;;
13419;SDS011;6781;58.440;15.470;2022-07-23T03:28:13;3.47;;;2.08;;
13419;SDS011;6781;58.440;15.470;2022-07-23T03:30:40;4.95;;;2.10;;
13419;SDS011;6781;58.440;15.470;2022-07-23T03:33:07;4.63;;;2.05;;
13419;SDS011;6781;58.440;15.470;2022-07-23T03:35:34;2.90;;;2.13;;
13419;SDS011;6781;58.440;15.470;2022-07-23T03:38:01;2.47;;;1.70;;
13419;SDS011;6781;58.440;15.470;2022-07-23T03:40:29;1.83;;;1.70;;
13419;SDS011;6781;58.440;15.470;2022-07-23T03:42:55;5.22;;;2.10;;
13419;SDS011;6781;58.440;15.470;2022-07-23T03:45:22;1.92;;;1.63;;
13419;SDS011;6781;58.440;15.470;2022-07-23T03:47:49;1.83;;;1.20;;
13419;SDS011;6781;58.440;15.470;2022-07-23T03:50:16;2.47;;;1.67;;
13419;SDS011;6781;58.440;15.470;2022-07-23T03:52:43;2.47;;;1.60;;
13419;SDS011;6781;58.440;15.470;2022-07-23T03:55:10;2.28;;;1.33;;
13419;SDS011;6781;58.440;15.470;2022-07-23T03:57:38;4.90;;;1.65;;
13419;SDS011;6781;58.440;15.470;2022-07-23T04:00:09;2.80;;;1.65;;
13419;SDS011;6781;58.440;15.470;2022-07-23T04:02:38;2.00;;;1.30;;
13419;SDS011;6781;58.440;15.470;2022-07-23T04:05:05;2.30;;;1.52;;
13419;SDS011;6781;58.440;15.470;2022-07-23T04:07:33;1.40;;;1.30;;
13419;SDS011;6781;58.440;15.470;2022-07-23T04:10:00;2.00;;;1.30;;
13419;SDS011;6781;58.440;15.470;2022-07-23T04:12:26;2.20;;;1.33;;
13419;SDS011;6781;58.440;15.470;2022-07-23T04:14:54;1.25;;;0.90;;
13419;SDS011;6781;58.440;15.470;2022-07-23T04:17:21;1.48;;;1.10;;
13419;SDS011;6781;58.440;15.470;2022-07-23T04:19:48;1.35;;;1.00;;
13419;SDS011;6781;58.440;15.470;2022-07-23T04:22:15;1.88;;;1.15;;
13419;SDS011;6781;58.440;15.470;2022-07-23T04:24:41;2.28;;;1.27;;
13419;SDS011;6781;58.440;15.470;2022-07-23T04:27:08;1.20;;;1.00;;
13419;SDS011;6781;58.440;15.470;2022-07-23T04:29:35;1.67;;;1.10;;
13419;SDS011;6781;58.440;15.470;2022-07-23T04:32:03;2.92;;;1.05;;
13419;SDS011;6781;58.440;15.470;2022-07-23T04:34:31;3.63;;;1.20;;
13419;SDS011;6781;58.440;15.470;2022-07-23T04:36:57;1.23;;;1.00;;
13419;SDS011;6781;58.440;15.470;2022-07-23T04:39:24;1.10;;;1.10;;
13419;SDS011;6781;58.440;15.470;2022-07-23T04:41:51;1.05;;;1.05;;
13419;SDS011;6781;58.440;15.470;2022-07-23T04:44:18;1.10;;;1.00;;
13419;SDS011;6781;58.440;15.470;2022-07-23T04:46:44;1.38;;;1.30;;
13419;SDS011;6781;58.440;15.470;2022-07-23T04:49:13;1.40;;;1.20;;
13419;SDS011;6781;58.440;15.470;2022-07-23T04:51:39;2.30;;;1.60;;
13419;SDS011;6781;58.440;15.470;2022-07-23T04:54:06;1.40;;;1.30;;
13419;SDS011;6781;58.440;15.470;2022-07-23T04:56:33;1.23;;;1.13;;
13419;SDS011;6781;58.440;15.470;2022-07-23T04:58:59;1.90;;;1.80;;
13419;SDS011;6781;58.440;15.470;2022-07-23T05:01:26;1.60;;;1.50;;
13419;SDS011;6781;58.440;15.470;2022-07-23T05:03:53;1.52;;;1.42;;
13419;SDS011;6781;58.440;15.470;2022-07-23T05:06:21;2.33;;;1.88;;
13419;SDS011;6781;58.440;15.470;2022-07-23T05:08:48;1.80;;;1.58;;
13419;SDS011;6781;58.440;15.470;2022-07-23T05:11:15;3.95;;;1.73;;
13419;SDS011;6781;58.440;15.470;2022-07-23T05:13:41;1.80;;;1.70;;
13419;SDS011;6781;58.440;15.470;2022-07-23T05:16:08;1.73;;;1.63;;
13419;SDS011;6781;58.440;15.470;2022-07-23T05:18:35;2.03;;;1.92;;
13419;SDS011;6781;58.440;15.470;2022-07-23T05:21:02;2.08;;;1.83;;
13419;SDS011;6781;58.440;15.470;2022-07-23T05:23:30;2.20;;;1.90;;
13419;SDS011;6781;58.440;15.470;2022-07-23T05:25:57;2.97;;;2.03;;
13419;SDS011;6781;58.440;15.470;2022-07-23T05:28:23;2.55;;;1.65;;
13419;SDS011;6781;58.440;15.470;2022-07-23T05:30:50;1.98;;;1.88;;
13419;SDS011;6781;58.440;15.470;2022-07-23T05:33:17;1.90;;;1.80;;
13419;SDS011;6781;58.440;15.470;2022-07-23T05:35:44;2.28;;;2.08;;
13419;SDS011;6781;58.440;15.470;2022-07-23T05:38:11;2.72;;;1.88;;
13419;SDS011;6781;58.440;15.470;2022-07-23T05:40:39;2.00;;;1.60;;
13419;SDS011;6781;58.440;15.470;2022-07-23T05:43:06;1.98;;;1.77;;
13419;SDS011;6781;58.440;15.470;2022-07-23T05:45:32;2.03;;;1.85;;
13419;SDS011;6781;58.440;15.470;2022-07-23T05:47:59;1.80;;;1.70;;
13419;SDS011;6781;58.440;15.470;2022-07-23T05:50:26;1.98;;;1.63;;
13419;SDS011;6781;58.440;15.470;2022-07-23T05:52:53;1.85;;;1.75;;
13419;SDS011;6781;58.440;15.470;2022-07-23T05:55:19;1.75;;;1.65;;
13419;SDS011;6781;58.440;15.470;2022-07-23T05:57:47;1.83;;;1.73;;
13419;SDS011;6781;58.440;15.470;2022-07-23T06:00:14;1.42;;;1.30;;
13419;SDS011;6781;58.440;15.470;2022-07-23T06:02:41;2.83;;;1.40;;
13419;SDS011;6781;58.440;15.470;2022-07-23T06:05:08;2.17;;;1.58;;
13419;SDS011;6781;58.440;15.470;2022-07-23T06:07:35;3.85;;;1.42;;
13419;SDS011;6781;58.440;15.470;2022-07-23T06:10:02;1.50;;;1.40;;
13419;SDS011;6781;58.440;15.470;2022-07-23T06:12:30;2.28;;;1.70;;
13419;SDS011;6781;58.440;15.470;2022-07-23T06:14:58;2.20;;;1.63;;
13419;SDS011;6781;58.440;15.470;2022-07-23T06:17:25;1.60;;;1.50;;
13419;SDS011;6781;58.440;15.470;2022-07-23T06:19:52;1.60;;;1.50;;
13419;SDS011;6781;58.440;15.470;2022-07-23T06:22:19;2.35;;;1.55;;
13419;SDS011;6781;58.440;15.470;2022-07-23T06:24:46;1.20;;;1.10;;
13419;SDS011;6781;58.440;15.470;2022-07-23T06:27:13;1.50;;;1.30;;
13419;SDS011;6781;58.440;15.470;2022-07-23T06:29:40;1.20;;;1.10;;
13419;SDS011;6781;58.440;15.470;2022-07-23T06:32:11;1.45;;;1.35;;
13419;SDS011;6781;58.440;15.470;2022-07-23T06:34:38;1.35;;;1.23;;
13419;SDS011;6781;58.440;15.470;2022-07-23T06:37:05;1.50;;;1.40;;
13419;SDS011;6781;58.440;15.470;2022-07-23T06:39:32;1.60;;;1.50;;
13419;SDS011;6781;58.440;15.470;2022-07-23T06:41:59;1.65;;;1.17;;
13419;SDS011;6781;58.440;15.470;2022-07-23T06:44:27;2.10;;;1.30;;
13419;SDS011;6781;58.440;15.470;2022-07-23T06:46:54;2.00;;;1.10;;
13419;SDS011;6781;58.440;15.470;2022-07-23T06:49:22;1.35;;;1.27;;
13419;SDS011;6781;58.440;15.470;2022-07-23T06:51:49;1.67;;;1.27;;
13419;SDS011;6781;58.440;15.470;2022-07-23T06:54:16;1.95;;;1.23;;
13419;SDS011;6781;58.440;15.470;2022-07-23T06:56:42;1.55;;;1.10;;
13419;SDS011;6781;58.440;15.470;2022-07-23T06:59:09;1.08;;;1.08;;
13419;SDS011;6781;58.440;15.470;2022-07-23T07:01:37;1.17;;;1.08;;
13419;SDS011;6781;58.440;15.470;2022-07-23T07:04:03;1.40;;;1.30;;
13419;SDS011;6781;58.440;15.470;2022-07-23T07:06:32;1.13;;;1.10;;
13419;SDS011;6781;58.440;15.470;2022-07-23T07:08:59;1.17;;;1.17;;
13419;SDS011;6781;58.440;15.470;2022-07-23T07:11:25;0.90;;;0.90;;
13419;SDS011;6781;58.440;15.470;2022-07-23T07:13:53;1.20;;;1.10;;
13419;SDS011;6781;58.440;15.470;2022-07-23T07:16:20;2.28;;;1.20;;
13419;SDS011;6781;58.440;15.470;2022-07-23T07:18:47;1.88;;;0.80;;
13419;SDS011;6781;58.440;15.470;2022-07-23T07:21:13;1.20;;;1.10;;
13419;SDS011;6781;58.440;15.470;2022-07-23T07:23:42;1.17;;;1.17;;
13419;SDS011;6781;58.440;15.470;2022-07-23T07:26:09;0.88;;;0.88;;
13419;SDS011;6781;58.440;15.470;2022-07-23T07:28:35;1.27;;;1.17;;
13419;SDS011;6781;58.440;15.470;2022-07-23T07:31:02;1.00;;;1.00;;
13419;SDS011;6781;58.440;15.470;2022-07-23T07:33:29;1.00;;;1.00;;
13419;SDS011;6781;58.440;15.470;2022-07-23T07:35:57;1.10;;;1.00;;
13419;SDS011;6781;58.440;15.470;2022-07-23T07:38:26;0.95;;;0.95;;
13419;SDS011;6781;58.440;15.470;2022-07-23T07:40:54;2.17;;;1.17;;
13419;SDS011;6781;58.440;15.470;2022-07-23T07:43:21;0.95;;;0.95;;
13419;SDS011;6781;58.440;15.470;2022-07-23T07:45:48;1.10;;;1.10;;
13419;SDS011;6781;58.440;15.470;2022-07-23T07:48:15;1.10;;;1.02;;
13419;SDS011;6781;58.440;15.470;2022-07-23T07:50:41;1.10;;;1.00;;
13419;SDS011;6781;58.440;15.470;2022-07-23T07:53:08;1.27;;;1.17;;
13419;SDS011;6781;58.440;15.470;2022-07-23T07:55:35;1.20;;;1.10;;
13419;SDS011;6781;58.440;15.470;2022-07-23T07:58:03;1.10;;;1.10;;
13419;SDS011;6781;58.440;15.470;2022-07-23T08:00:30;1.30;;;1.23;;
13419;SDS011;6781;58.440;15.470;2022-07-23T08:02:58;1.27;;;1.23;;
13419;SDS011;6781;58.440;15.470;2022-07-23T08:05:25;1.23;;;1.23;;
13419;SDS011;6781;58.440;15.470;2022-07-23T08:07:54;1.38;;;1.27;;
13419;SDS011;6781;58.440;15.470;2022-07-23T08:10:24;1.08;;;1.02;;
13419;SDS011;6781;58.440;15.470;2022-07-23T08:12:52;1.30;;;1.20;;
13419;SDS011;6781;58.440;15.470;2022-07-23T08:15:23;1.17;;;1.17;;
13419;SDS011;6781;58.440;15.470;2022-07-23T08:17:51;1.35;;;1.30;;
13419;SDS011;6781;58.440;15.470;2022-07-23T08:20:19;1.42;;;1.30;;
13419;SDS011;6781;58.440;15.470;2022-07-23T08:22:48;1.55;;;1.30;;
13419;SDS011;6781;58.440;15.470;2022-07-23T08:25:19;1.15;;;1.15;;
13419;SDS011;6781;58.440;15.470;2022-07-23T08:27:48;1.35;;;1.25;;
13419;SDS011;6781;58.440;15.470;2022-07-23T08:30:15;1.10;;;1.10;;
13419;SDS011;6781;58.440;15.470;2022-07-23T08:32:50;1.20;;;1.20;;
13419;SDS011;6781;58.440;15.470;2022-07-23T08:35:21;1.50;;;1.40;;
13419;SDS011;6781;58.440;15.470;2022-07-23T08:37:50;1.50;;;1.40;;
13419;SDS011;6781;58.440;15.470;2022-07-23T08:40:16;1.10;;;1.05;;
13419;SDS011;6781;58.440;15.470;2022-07-23T08:42:44;1.35;;;1.30;;
13419;SDS011;6781;58.440;15.470;2022-07-23T08:45:16;1.50;;;1.40;;
13419;SDS011;6781;58.440;15.470;2022-07-23T08:47:44;1.50;;;1.40;;
13419;SDS011;6781;58.440;15.470;2022-07-23T08:50:13;1.15;;;1.05;;
13419;SDS011;6781;58.440;15.470;2022-07-23T08:52:40;1.58;;;1.52;;
13419;SDS011;6781;58.440;15.470;2022-07-23T08:55:07;1.58;;;1.48;;
13419;SDS011;6781;58.440;15.470;2022-07-23T08:57:35;1.30;;;1.30;;
13419;SDS011;6781;58.440;15.470;2022-07-23T09:00:03;1.40;;;1.33;;
13419;SDS011;6781;58.440;15.470;2022-07-23T09:02:31;1.30;;;1.30;;
13419;SDS011;6781;58.440;15.470;2022-07-23T09:05:06;1.30;;;1.30;;
13419;SDS011;6781;58.440;15.470;2022-07-23T09:07:37;1.45;;;1.20;;
13419;SDS011;6781;58.440;15.470;2022-07-23T09:10:04;1.38;;;1.08;;
13419;SDS011;6781;58.440;15.470;2022-07-23T09:12:33;2.08;;;1.13;;
13419;SDS011;6781;58.440;15.470;2022-07-23T09:15:03;1.10;;;1.10;;
13419;SDS011;6781;58.440;15.470;2022-07-23T09:17:36;1.27;;;1.17;;
13419;SDS011;6781;58.440;15.470;2022-07-23T09:20:08;1.15;;;1.15;;
13419;SDS011;6781;58.440;15.470;2022-07-23T09:22:38;2.05;;;1.10;;
13419;SDS011;6781;58.440;15.470;2022-07-23T09:25:09;1.27;;;1.27;;
13419;SDS011;6781;58.440;15.470;2022-07-23T09:27:47;1.05;;;1.05;;
13419;SDS011;6781;58.440;15.470;2022-07-23T09:30:19;1.00;;;1.00;;
13419;SDS011;6781;58.440;15.470;2022-07-23T09:38:23;1.60;;;1.35;;
13419;SDS011;6781;58.440;15.470;2022-07-23T09:41:04;0.85;;;0.85;;
13419;SDS011;6781;58.440;15.470;2022-07-23T09:43:32;1.30;;;1.20;;
13419;SDS011;6781;58.440;15.470;2022-07-23T09:48:44;1.20;;;1.10;;
13419;SDS011;6781;58.440;15.470;2022-07-23T09:51:11;1.23;;;1.23;;
13419;SDS011;6781;58.440;15.470;2022-07-23T09:53:39;1.20;;;1.20;;
13419;SDS011;6781;58.440;15.470;2022-07-23T09:56:06;1.30;;;1.20;;
13419;SDS011;6781;58.440;15.470;2022-07-23T09:58:34;2.08;;;1.20;;
13419;SDS011;6781;58.440;15.470;2022-07-23T10:01:11;1.20;;;1.17;;
13419;SDS011;6781;58.440;15.470;2022-07-23T10:03:39;1.15;;;1.15;;
13419;SDS011;6781;58.440;15.470;2022-07-23T10:06:07;1.20;;;1.20;;
13419;SDS011;6781;58.440;15.470;2022-07-23T10:08:35;1.10;;;1.10;;
13419;SDS011;6781;58.440;15.470;2022-07-23T10:11:08;1.98;;;1.30;;
13419;SDS011;6781;58.440;15.470;2022-07-23T10:13:37;1.50;;;1.40;;
13419;SDS011;6781;58.440;15.470;2022-07-23T10:16:19;1.25;;;1.25;;
13419;SDS011;6781;58.440;15.470;2022-07-23T10:18:47;1.00;;;1.00;;
13419;SDS011;6781;58.440;15.470;2022-07-23T10:21:16;1.55;;;0.98;;
13419;SDS011;6781;58.440;15.470;2022-07-23T10:23:51;1.15;;;1.05;;
13419;SDS011;6781;58.440;15.470;2022-07-23T10:26:34;1.25;;;1.13;;
13419;SDS011;6781;58.440;15.470;2022-07-23T10:29:09;1.35;;;1.25;;
13419;SDS011;6781;58.440;15.470;2022-07-23T10:31:47;1.70;;;1.63;;
13419;SDS011;6781;58.440;15.470;2022-07-23T10:34:25;1.90;;;1.63;;
13419;SDS011;6781;58.440;15.470;2022-07-23T10:36:57;1.40;;;1.20;;
13419;SDS011;6781;58.440;15.470;2022-07-23T10:39:33;1.33;;;1.23;;
13419;SDS011;6781;58.440;15.470;2022-07-23T10:42:11;1.30;;;1.30;;
13419;SDS011;6781;58.440;15.470;2022-07-23T10:44:40;1.70;;;1.60;;
13419;SDS011;6781;58.440;15.470;2022-07-23T10:47:08;1.38;;;1.38;;
13419;SDS011;6781;58.440;15.470;2022-07-23T10:49:53;1.55;;;1.45;;
13419;SDS011;6781;58.440;15.470;2022-07-23T10:52:23;1.55;;;1.40;;
13419;SDS011;6781;58.440;15.470;2022-07-23T10:54:52;1.20;;;1.20;;
13419;SDS011;6781;58.440;15.470;2022-07-23T10:57:22;1.38;;;1.30;;
13419;SDS011;6781;58.440;15.470;2022-07-23T11:02:38;1.30;;;1.20;;
13419;SDS011;6781;58.440;15.470;2022-07-23T11:05:06;1.70;;;1.60;;
13419;SDS011;6781;58.440;15.470;2022-07-23T11:07:34;1.23;;;1.10;;
13419;SDS011;6781;58.440;15.470;2022-07-23T11:10:02;1.38;;;1.33;;
13419;SDS011;6781;58.440;15.470;2022-07-23T11:12:37;1.30;;;1.30;;
13419;SDS011;6781;58.440;15.470;2022-07-23T11:15:05;1.40;;;1.30;;
13419;SDS011;6781;58.440;15.470;2022-07-23T11:17:35;1.33;;;1.23;;
13419;SDS011;6781;58.440;15.470;2022-07-23T11:20:19;2.03;;;1.33;;
13419;SDS011;6781;58.440;15.470;2022-07-23T11:22:48;1.20;;;1.20;;
13419;SDS011;6781;58.440;15.470;2022-07-23T11:25:32;1.60;;;1.50;;
13419;SDS011;6781;58.440;15.470;2022-07-23T11:28:10;1.33;;;1.33;;
13419;SDS011;6781;58.440;15.470;2022-07-23T11:30:40;1.40;;;1.27;;
13419;SDS011;6781;58.440;15.470;2022-07-23T11:33:18;1.60;;;1.60;;
13419;SDS011;6781;58.440;15.470;2022-07-23T11:35:47;1.63;;;1.52;;
13419;SDS011;6781;58.440;15.470;2022-07-23T11:38:16;1.30;;;1.30;;
13419;SDS011;6781;58.440;15.470;2022-07-23T11:40:46;3.10;;;1.80;;
13419;SDS011;6781;58.440;15.470;2022-07-23T11:43:16;2.65;;;1.60;;
13419;SDS011;6781;58.440;15.470;2022-07-23T11:45:44;1.75;;;1.70;;
13419;SDS011;6781;58.440;15.470;2022-07-23T11:48:16;1.63;;;1.52;;
13419;SDS011;6781;58.440;15.470;2022-07-23T11:50:44;2.35;;;1.48;;
13419;SDS011;6781;58.440;15.470;2022-07-23T11:53:11;5.25;;;1.95;;
13419;SDS011;6781;58.440;15.470;2022-07-23T11:55:39;1.60;;;1.50;;
13419;SDS011;6781;58.440;15.470;2022-07-23T11:58:06;1.48;;;1.40;;
13419;SDS011;6781;58.440;15.470;2022-07-23T12:00:34;1.63;;;1.50;;
13419;SDS011;6781;58.440;15.470;2022-07-23T12:03:02;1.75;;;1.67;;
13419;SDS011;6781;58.440;15.470;2022-07-23T12:05:32;1.52;;;1.52;;
13419;SDS011;6781;58.440;15.470;2022-07-23T12:08:00;1.80;;;1.70;;
13419;SDS011;6781;58.440;15.470;2022-07-23T12:10:30;1.85;;;1.75;;
13419;SDS011;6781;58.440;15.470;2022-07-23T12:13:02;2.45;;;1.70;;
13419;SDS011;6781;58.440;15.470;2022-07-23T12:15:33;1.73;;;1.65;;
13419;SDS011;6781;58.440;15.470;2022-07-23T12:18:04;1.90;;;1.80;;
13419;SDS011;6781;58.440;15.470;2022-07-23T12:20:32;1.83;;;1.73;;
13419;SDS011;6781;58.440;15.470;2022-07-23T12:23:02;1.80;;;1.70;;
13419;SDS011;6781;58.440;15.470;2022-07-23T12:25:32;2.63;;;2.05;;
13419;SDS011;6781;58.440;15.470;2022-07-23T12:28:02;1.70;;;1.60;;
13419;SDS011;6781;58.440;15.470;2022-07-23T12:30:32;2.97;;;1.58;;
13419;SDS011;6781;58.440;15.470;2022-07-23T12:33:03;2.45;;;2.00;;
13419;SDS011;6781;58.440;15.470;2022-07-23T12:35:31;3.03;;;1.92;;
13419;SDS011;6781;58.440;15.470;2022-07-23T12:38:00;1.70;;;1.60;;
13419;SDS011;6781;58.440;15.470;2022-07-23T12:40:30;2.33;;;1.63;;
13419;SDS011;6781;58.440;15.470;2022-07-23T12:42:58;2.85;;;1.80;;
13419;SDS011;6781;58.440;15.470;2022-07-23T12:45:26;1.60;;;1.50;;
13419;SDS011;6781;58.440;15.470;2022-07-23T12:48:02;1.67;;;1.50;;
13419;SDS011;6781;58.440;15.470;2022-07-23T12:50:42;1.85;;;1.50;;
13419;SDS011;6781;58.440;15.470;2022-07-23T12:53:11;1.50;;;1.40;;
13419;SDS011;6781;58.440;15.470;2022-07-23T12:55:41;1.80;;;1.70;;
13419;SDS011;6781;58.440;15.470;2022-07-23T12:58:10;1.73;;;1.63;;
13419;SDS011;6781;58.440;15.470;2022-07-23T13:00:52;1.60;;;1.50;;
13419;SDS011;6781;58.440;15.470;2022-07-23T13:03:32;1.65;;;1.55;;
13419;SDS011;6781;58.440;15.470;2022-07-23T13:06:05;1.63;;;1.60;;
13419;SDS011;6781;58.440;15.470;2022-07-23T13:08:35;1.38;;;1.30;;
13419;SDS011;6781;58.440;15.470;2022-07-23T13:11:07;1.90;;;1.50;;
13419;SDS011;6781;58.440;15.470;2022-07-23T13:13:34;1.35;;;1.30;;
13419;SDS011;6781;58.440;15.470;2022-07-23T13:16:02;3.10;;;1.40;;
13419;SDS011;6781;58.440;15.470;2022-07-23T13:18:29;1.15;;;1.15;;
13419;SDS011;6781;58.440;15.470;2022-07-23T13:20:58;2.50;;;1.30;;
13419;SDS011;6781;58.440;15.470;2022-07-23T13:23:25;1.20;;;1.20;;
13419;SDS011;6781;58.440;15.470;2022-07-23T13:25:52;1.90;;;1.30;;
13419;SDS011;6781;58.440;15.470;2022-07-23T13:28:20;1.60;;;1.50;;
13419;SDS011;6781;58.440;15.470;2022-07-23T13:30:48;1.60;;;1.50;;
13419;SDS011;6781;58.440;15.470;2022-07-23T13:33:16;1.27;;;1.20;;
13419;SDS011;6781;58.440;15.470;2022-07-23T13:35:43;1.10;;;1.10;;
13419;SDS011;6781;58.440;15.470;2022-07-23T13:38:12;1.65;;;1.40;;
13419;SDS011;6781;58.440;15.470;2022-07-23T13:40:39;1.02;;;1.02;;
13419;SDS011;6781;58.440;15.470;2022-07-23T13:43:08;1.17;;;1.17;;
13419;SDS011;6781;58.440;15.470;2022-07-23T13:45:35;3.50;;;1.30;;
13419;SDS011;6781;58.440;15.470;2022-07-23T13:48:03;1.77;;;1.20;;
13419;SDS011;6781;58.440;15.470;2022-07-23T13:50:31;1.30;;;1.08;;
13419;SDS011;6781;58.440;15.470;2022-07-23T13:53:00;1.40;;;1.30;;
13419;SDS011;6781;58.440;15.470;2022-07-23T13:55:29;1.17;;;1.17;;
13419;SDS011;6781;58.440;15.470;2022-07-23T13:57:56;1.23;;;1.13;;
13419;SDS011;6781;58.440;15.470;2022-07-23T14:00:23;1.23;;;1.13;;
13419;SDS011;6781;58.440;15.470;2022-07-23T14:02:50;2.38;;;1.05;;
13419;SDS011;6781;58.440;15.470;2022-07-23T14:05:20;1.30;;;1.30;;
13419;SDS011;6781;58.440;15.470;2022-07-23T14:07:47;1.50;;;1.05;;
13419;SDS011;6781;58.440;15.470;2022-07-23T14:10:15;2.60;;;1.13;;
13419;SDS011;6781;58.440;15.470;2022-07-23T14:12:47;3.10;;;1.30;;
13419;SDS011;6781;58.440;15.470;2022-07-23T14:15:16;1.00;;;1.00;;
13419;SDS011;6781;58.440;15.470;2022-07-23T14:17:43;1.95;;;1.30;;
13419;SDS011;6781;58.440;15.470;2022-07-23T14:20:11;1.30;;;1.05;;
13419;SDS011;6781;58.440;15.470;2022-07-23T14:22:39;1.38;;;1.10;;
13419;SDS011;6781;58.440;15.470;2022-07-23T14:25:07;1.30;;;1.30;;
13419;SDS011;6781;58.440;15.470;2022-07-23T14:27:36;1.15;;;1.10;;
13419;SDS011;6781;58.440;15.470;2022-07-23T14:30:05;1.42;;;1.33;;
13419;SDS011;6781;58.440;15.470;2022-07-23T14:32:34;1.60;;;1.10;;
13419;SDS011;6781;58.440;15.470;2022-07-23T14:35:01;2.85;;;1.30;;
13419;SDS011;6781;58.440;15.470;2022-07-23T14:37:28;1.27;;;1.20;;
13419;SDS011;6781;58.440;15.470;2022-07-23T14:39:56;1.10;;;1.10;;
13419;SDS011;6781;58.440;15.470;2022-07-23T14:42:23;1.13;;;1.10;;
13419;SDS011;6781;58.440;15.470;2022-07-23T14:44:50;1.30;;;1.05;;
13419;SDS011;6781;58.440;15.470;2022-07-23T14:47:18;2.60;;;1.20;;
13419;SDS011;6781;58.440;15.470;2022-07-23T14:49:45;1.63;;;1.02;;
13419;SDS011;6781;58.440;15.470;2022-07-23T14:52:12;1.33;;;1.23;;
13419;SDS011;6781;58.440;15.470;2022-07-23T14:54:38;1.30;;;1.30;;
13419;SDS011;6781;58.440;15.470;2022-07-23T14:57:05;1.58;;;1.48;;
13419;SDS011;6781;58.440;15.470;2022-07-23T14:59:34;1.77;;;1.67;;
13419;SDS011;6781;58.440;15.470;2022-07-23T15:02:01;3.75;;;1.40;;
13419;SDS011;6781;58.440;15.470;2022-07-23T15:04:29;0.98;;;0.90;;
13419;SDS011;6781;58.440;15.470;2022-07-23T15:06:56;1.35;;;1.30;;
13419;SDS011;6781;58.440;15.470;2022-07-23T15:09:23;0.82;;;0.82;;